sensor_id;sensor_type;location;lat;lon;timestamp;pressure;altitude;pressure_sealevel;temperature;humidity
3590;BME280;1809;48.470;9.226;2023-03-13T00:00:57;-13720.72;;;9.17;100.00
3590;BME280;1809;48.470;9.226;2023-03-13T00:03:24;-16426.03;;;9.22;100.00
3590;BME280;1809;48.470;9.226;2023-03-13T00:05:57;-16426.31;;;9.23;100.00
3590;BME280;1809;48.470;9.226;2023-03-13T00:08:24;-16425.47;;;9.20;100.00
3590;BME280;1809;48.470;9.226;2023-03-13T00:10:50;-16425.19;;;9.19;100.00
3590;BME280;1809;48.470;9.226;2023-03-13T00:13:15;-16426.31;;;9.23;100.00
3590;BME280;1809;48.470;9.226;2023-03-13T00:15:40;-16430.38;;;9.38;100.00
3590;BME280;1809;48.470;9.226;2023-03-13T00:18:05;-16427.72;;;9.28;100.00
3590;BME280;1809;48.470;9.226;2023-03-13T00:20:31;-16423.63;;;9.13;100.00
3590;BME280;1809;48.470;9.226;2023-03-13T00:22:56;-5511.59;;;9.00;100.00
3590;BME280;1809;48.470;9.226;2023-03-13T00:25:22;2779.06;;;9.02;100.00
3590;BME280;1809;48.470;9.226;2023-03-13T00:27:47;-1534.75;;;9.00;100.00
3590;BME280;1809;48.470;9.226;2023-03-13T00:30:13;-207.97;;;8.97;100.00
3590;BME280;1809;48.470;9.226;2023-03-13T00:32:43;3775.25;;;8.99;100.00
3590;BME280;1809;48.470;9.226;2023-03-13T00:35:10;3443.81;;;9.15;100.00
3590;BME280;1809;48.470;9.226;2023-03-13T00:37:35;1451.06;;;8.97;100.00
3590;BME280;1809;48.470;9.226;2023-03-13T00:40:01;2447.19;;;9.07;100.00
3590;BME280;1809;48.470;9.226;2023-03-13T00:42:26;1783.06;;;9.02;100.00
3590;BME280;1809;48.470;9.226;2023-03-13T00:44:51;4439.19;;;8.92;100.00
3590;BME280;1809;48.470;9.226;2023-03-13T00:47:17;9757.94;;;8.90;100.00
3590;BME280;1809;48.470;9.226;2023-03-13T00:49:42;12419.72;;;8.86;100.00
3590;BME280;1809;48.470;9.226;2023-03-13T00:52:07;13753.25;;;8.93;100.00
3590;BME280;1809;48.470;9.226;2023-03-13T00:54:33;4771.63;;;8.96;100.00
3590;BME280;1809;48.470;9.226;2023-03-13T00:56:58;7762.97;;;8.96;100.00
3590;BME280;1809;48.470;9.226;2023-03-13T00:59:23;-3192.53;;;9.03;100.00
3590;BME280;1809;48.470;9.226;2023-03-13T01:01:49;-2529.38;;;8.99;100.00
3590;BME280;1809;48.470;9.226;2023-03-13T01:04:14;2114.94;;;8.97;100.00
3590;BME280;1809;48.470;9.226;2023-03-13T01:06:40;5104.03;;;8.98;100.00
3590;BME280;1809;48.470;9.226;2023-03-13T01:09:09;8095.88;;;8.99;100.00
3590;BME280;1809;48.470;9.226;2023-03-13T01:11:36;-7831.53;;;9.16;100.00
3590;BME280;1809;48.470;9.226;2023-03-13T01:14:05;-7168.19;;;9.07;100.00
3590;BME280;1809;48.470;9.226;2023-03-13T01:16:32;-1866.38;;;9.01;100.00
3590;BME280;1809;48.470;9.226;2023-03-13T01:19:01;3443.25;;;9.02;100.00
3590;BME280;1809;48.470;9.226;2023-03-13T01:21:27;455.47;;;9.10;100.00
3590;BME280;1809;48.470;9.226;2023-03-13T01:23:53;-2198.66;;;9.16;100.00
3590;BME280;1809;48.470;9.226;2023-03-13T01:26:19;-8163.09;;;9.20;100.00
3590;BME280;1809;48.470;9.226;2023-03-13T01:28:45;-871.88;;;9.16;100.00
3590;BME280;1809;48.470;9.226;2023-03-13T01:31:15;-208.38;;;9.21;100.00
3590;BME280;1809;48.470;9.226;2023-03-13T01:33:43;-5847.47;;;9.43;100.00
3590;BME280;1809;48.470;9.226;2023-03-13T01:36:08;-8826.22;;;9.27;100.00
3590;BME280;1809;48.470;9.226;2023-03-13T01:38:34;-8496.03;;;9.33;100.00
3590;BME280;1809;48.470;9.226;2023-03-13T01:40:59;-7171.91;;;9.36;100.00
3590;BME280;1809;48.470;9.226;2023-03-13T01:43:27;-2530.81;;;9.26;100.00
3590;BME280;1809;48.470;9.226;2023-03-13T01:50:54;11431.38;;;9.46;100.00
3590;BME280;1809;48.470;9.226;2023-03-13T01:53:21;7103.75;;;9.52;100.00
3590;BME280;1809;48.470;9.226;2023-03-13T01:55:48;6105.88;;;9.55;100.00
3590;BME280;1809;48.470;9.226;2023-03-13T01:58:13;9435.47;;;9.63;100.00
3590;BME280;1809;48.470;9.226;2023-03-13T02:00:39;4444.31;;;9.80;100.00
3590;BME280;1809;48.470;9.226;2023-03-13T02:03:10;-3197.69;;;9.82;100.00
3590;BME280;1809;48.470;9.226;2023-03-13T02:05:37;1451.97;;;9.84;100.00
3590;BME280;1809;48.470;9.226;2023-03-13T02:08:07;4112.06;;;9.86;100.00
3590;BME280;1809;48.470;9.226;2023-03-13T02:10:40;11105.91;;;9.92;100.00
3590;BME280;1809;48.470;9.226;2023-03-13T02:13:07;17781.75;;;9.97;100.00
3590;BME280;1809;48.470;9.226;2023-03-13T02:15:35;17115.53;;;10.04;100.00
3590;BME280;1809;48.470;9.226;2023-03-13T02:18:00;9109.63;;;10.17;100.00
3590;BME280;1809;48.470;9.226;2023-03-13T02:20:26;2117.38;;;10.14;100.00
3590;BME280;1809;48.470;9.226;2023-03-13T02:23:09;1452.31;;;10.17;100.00
3590;BME280;1809;48.470;9.226;2023-03-13T02:25:50;5779.50;;;10.34;100.00
3590;BME280;1809;48.470;9.226;2023-03-13T02:28:22;-9174.94;;;10.37;100.00
3590;BME280;1809;48.470;9.226;2023-03-13T02:30:50;-9506.25;;;10.36;100.00
3590;BME280;1809;48.470;9.226;2023-03-13T02:33:18;-5856.44;;;10.27;100.00
3590;BME280;1809;48.470;9.226;2023-03-13T02:35:46;4114.50;;;10.32;100.00
3590;BME280;1809;48.470;9.226;2023-03-13T02:38:16;15455.63;;;10.46;100.00
3590;BME280;1809;48.470;9.226;2023-03-13T02:40:46;23492.59;;;10.69;100.00
3590;BME280;1809;48.470;9.226;2023-03-13T02:43:22;25169.06;;;10.71;100.00
3590;BME280;1809;48.470;9.226;2023-03-13T02:46:18;17133.03;;;10.70;100.00
3590;BME280;1809;48.470;9.226;2023-03-13T02:48:49;16802.28;;;10.85;100.00
3590;BME280;1809;48.470;9.226;2023-03-13T02:51:27;9791.50;;;11.21;100.00
3590;BME280;1809;48.470;9.226;2023-03-13T02:53:57;-8857.66;;;11.29;100.00
3590;BME280;1809;48.470;9.226;2023-03-13T02:56:25;-12231.06;;;11.40;100.00
3590;BME280;1809;48.470;9.226;2023-03-13T02:58:51;-12449.47;;;11.31;100.00
3590;BME280;1809;48.470;9.226;2023-03-13T03:01:16;-16487.97;;;11.45;100.00
3590;BME280;1809;48.470;9.226;2023-03-13T03:03:41;-16488.53;;;11.47;100.00
3590;BME280;1809;48.470;9.226;2023-03-13T03:06:07;-16490.91;;;11.55;100.00
3590;BME280;1809;48.470;9.226;2023-03-13T03:08:33;-16490.63;;;11.54;100.00
3590;BME280;1809;48.470;9.226;2023-03-13T03:10:59;-16491.75;;;11.58;100.00
3590;BME280;1809;48.470;9.226;2023-03-13T03:13:25;-16493.72;;;11.65;100.00
3590;BME280;1809;48.470;9.226;2023-03-13T03:15:50;-16496.53;;;11.75;100.00
3590;BME280;1809;48.470;9.226;2023-03-13T03:18:15;-16496.97;;;11.77;100.00
3590;BME280;1809;48.470;9.226;2023-03-13T03:20:41;-16492.88;;;11.62;100.00
3590;BME280;1809;48.470;9.226;2023-03-13T03:23:06;-16494.72;;;11.69;100.00
3590;BME280;1809;48.470;9.226;2023-03-13T03:25:31;-16495.13;;;11.70;100.00
3590;BME280;1809;48.470;9.226;2023-03-13T03:27:57;-16499.63;;;11.86;100.00
3590;BME280;1809;48.470;9.226;2023-03-13T03:30:22;-16510.28;;;12.25;100.00
3590;BME280;1809;48.470;9.226;2023-03-13T03:32:47;-16516.47;;;12.47;100.00
3590;BME280;1809;48.470;9.226;2023-03-13T03:35:13;-16516.34;;;12.47;100.00
3590;BME280;1809;48.470;9.226;2023-03-13T03:37:38;-16520.41;;;12.61;100.00
3590;BME280;1809;48.470;9.226;2023-03-13T03:40:04;-16519.97;;;12.60;100.00
3590;BME280;1809;48.470;9.226;2023-03-13T03:42:31;-16524.31;;;12.75;100.00
3590;BME280;1809;48.470;9.226;2023-03-13T03:44:56;-16521.81;;;12.66;100.00
3590;BME280;1809;48.470;9.226;2023-03-13T03:47:21;-16525.44;;;12.79;100.00
3590;BME280;1809;48.470;9.226;2023-03-13T03:49:47;-16524.63;;;12.76;100.00
3590;BME280;1809;48.470;9.226;2023-03-13T03:52:12;-16527.00;;;12.85;100.00
3590;BME280;1809;48.470;9.226;2023-03-13T03:54:38;-16528.53;;;12.90;100.00
3590;BME280;1809;48.470;9.226;2023-03-13T03:57:03;-16530.09;;;12.96;100.00
3590;BME280;1809;48.470;9.226;2023-03-13T03:59:28;-16529.09;;;12.92;100.00
3590;BME280;1809;48.470;9.226;2023-03-13T04:01:54;-16524.03;;;12.74;100.00
3590;BME280;1809;48.470;9.226;2023-03-13T04:04:19;-16515.78;;;12.45;100.00
3590;BME280;1809;48.470;9.226;2023-03-13T04:06:44;-16514.78;;;12.41;100.00
3590;BME280;1809;48.470;9.226;2023-03-13T04:09:10;-16510.84;;;12.27;100.00
3590;BME280;1809;48.470;9.226;2023-03-13T04:11:35;-16508.06;;;12.17;100.00
3590;BME280;1809;48.470;9.226;2023-03-13T04:14:00;-16497.09;;;11.77;100.00
3590;BME280;1809;48.470;9.226;2023-03-13T04:16:26;-16494.28;;;11.67;100.00
3590;BME280;1809;48.470;9.226;2023-03-13T04:18:51;-16489.94;;;11.52;100.00
3590;BME280;1809;48.470;9.226;2023-03-13T04:21:16;-16491.34;;;11.57;100.00
3590;BME280;1809;48.470;9.226;2023-03-13T04:23:41;-16484.47;;;11.32;100.00
3590;BME280;1809;48.470;9.226;2023-03-13T04:26:07;-16483.47;;;11.28;100.00
3590;BME280;1809;48.470;9.226;2023-03-13T04:28:32;-16484.19;;;11.31;100.00
3590;BME280;1809;48.470;9.226;2023-03-13T04:30:57;-16483.34;;;11.28;100.00
3590;BME280;1809;48.470;9.226;2023-03-13T04:33:24;-16480.53;;;11.18;100.00
3590;BME280;1809;48.470;9.226;2023-03-13T04:35:49;-6528.94;;;11.02;100.00
3590;BME280;1809;48.470;9.226;2023-03-13T04:38:14;3451.66;;;10.99;100.00
3590;BME280;1809;48.470;9.226;2023-03-13T04:40:40;6785.06;;;10.98;100.00
3590;BME280;1809;48.470;9.226;2023-03-13T04:43:07;4118.56;;;11.08;100.00
3590;BME280;1809;48.470;9.226;2023-03-13T04:45:32;-4536.41;;;11.15;100.00
3590;BME280;1809;48.470;9.226;2023-03-13T04:47:58;-3539.13;;;11.19;100.00
3590;BME280;1809;48.470;9.226;2023-03-13T04:50:23;5118.19;;;11.02;100.00
3590;BME280;1809;48.470;9.226;2023-03-13T04:52:48;4785.25;;;11.08;100.00
3590;BME280;1809;48.470;9.226;2023-03-13T04:55:14;8119.41;;;10.98;100.00
3590;BME280;1809;48.470;9.226;2023-03-13T04:57:39;8452.56;;;10.94;100.00
3590;BME280;1809;48.470;9.226;2023-03-13T05:00:05;13459.31;;;10.84;100.00
3590;BME280;1809;48.470;9.226;2023-03-13T05:02:32;19477.94;;;10.81;100.00
3590;BME280;1809;48.470;9.226;2023-03-13T05:04:58;24836.59;;;10.78;100.00
3590;BME280;1809;48.470;9.226;2023-03-13T05:07:24;27853.28;;;10.74;100.00
3590;BME280;1809;48.470;9.226;2023-03-13T05:09:49;28188.59;;;10.74;100.00
3590;BME280;1809;48.470;9.226;2023-03-13T05:12:15;36914.16;;;10.57;100.00
3590;BME280;1809;48.470;9.226;2023-03-13T05:14:40;42301.78;;;10.60;100.00
3590;BME280;1809;48.470;9.226;2023-03-13T05:17:05;43985.59;;;10.58;100.00
3590;BME280;1809;48.470;9.226;2023-03-13T05:19:31;48371.59;;;10.60;100.00
3590;BME280;1809;48.470;9.226;2023-03-13T05:21:56;46012.94;;;10.64;100.00
3590;BME280;1809;48.470;9.226;2023-03-13T05:24:21;45673.09;;;10.61;100.00
3590;BME280;1809;48.470;9.226;2023-03-13T05:26:46;49055.38;;;10.71;100.00
3590;BME280;1809;48.470;9.226;2023-03-13T05:29:12;48039.16;;;10.67;100.00
3590;BME280;1809;48.470;9.226;2023-03-13T05:31:37;51087.53;;;10.78;100.00
3590;BME280;1809;48.470;9.226;2023-03-13T05:34:02;49395.81;;;10.75;100.00
3590;BME280;1809;48.470;9.226;2023-03-13T05:36:28;52113.09;;;10.93;100.00
3590;BME280;1809;48.470;9.226;2023-03-13T05:38:53;68084.03;;;11.34;100.00
3590;BME280;1809;48.470;9.226;2023-03-13T05:41:18;60973.09;;;11.53;100.00
3590;BME280;1809;48.470;9.226;2023-03-13T05:43:44;67141.03;;;12.05;100.00
3590;BME280;1809;48.470;9.226;2023-03-13T05:46:09;57990.66;;;12.28;100.00
3590;BME280;1809;48.470;9.226;2023-03-13T05:48:34;39735.31;;;12.62;100.00
3590;BME280;1809;48.470;9.226;2023-03-13T05:51:00;28953.00;;;12.78;100.00
3590;BME280;1809;48.470;9.226;2023-03-13T05:53:25;17862.13;;;12.88;100.00
3590;BME280;1809;48.470;9.226;2023-03-13T05:55:50;16856.06;;;12.91;100.00
3590;BME280;1809;48.470;9.226;2023-03-13T05:58:15;3460.75;;;13.09;100.00
3590;BME280;1809;48.470;9.226;2023-03-13T06:00:41;-548.63;;;13.12;100.00
3590;BME280;1809;48.470;9.226;2023-03-13T06:03:08;-6220.78;;;13.15;100.00
3590;BME280;1809;48.470;9.226;2023-03-13T06:05:33;-6888.06;;;13.20;100.00
3590;BME280;1809;48.470;9.226;2023-03-13T06:07:58;-2218.19;;;13.20;100.00
3590;BME280;1809;48.470;9.226;2023-03-13T06:10:24;2124.03;;;13.21;100.00
3590;BME280;1809;48.470;9.226;2023-03-13T06:12:55;21230.00;;;13.17;100.00
3590;BME280;1809;48.470;9.226;2023-03-13T06:15:21;32339.59;;;13.13;100.00
3590;BME280;1809;48.470;9.226;2023-03-13T06:17:47;29981.28;;;13.16;100.00
3590;BME280;1809;48.470;9.226;2023-03-13T06:20:13;27624.78;;;13.21;100.00
3590;BME280;1809;48.470;9.226;2023-03-13T06:22:39;23588.09;;;13.28;100.00
3590;BME280;1809;48.470;9.226;2023-03-13T06:25:05;18210.91;;;13.35;100.00
3590;BME280;1809;48.470;9.226;2023-03-13T06:27:30;17538.91;;;13.34;100.00
3590;BME280;1809;48.470;9.226;2023-03-13T06:29:56;14518.72;;;13.40;100.00
3590;BME280;1809;48.470;9.226;2023-03-13T06:32:21;15189.41;;;13.38;100.00
3590;BME280;1809;48.470;9.226;2023-03-13T06:34:46;16868.16;;;13.38;100.00
3590;BME280;1809;48.470;9.226;2023-03-13T06:37:12;19219.81;;;13.38;100.00
3590;BME280;1809;48.470;9.226;2023-03-13T06:39:37;19892.97;;;13.41;100.00
3590;BME280;1809;48.470;9.226;2023-03-13T06:42:02;23256.03;;;13.40;100.00
3590;BME280;1809;48.470;9.226;2023-03-13T06:44:28;24602.88;;;13.42;100.00
3590;BME280;1809;48.470;9.226;2023-03-13T06:46:53;27632.25;;;13.38;100.00
3590;BME280;1809;48.470;9.226;2023-03-13T06:49:18;29993.69;;;13.42;100.00
3590;BME280;1809;48.470;9.226;2023-03-13T06:51:44;30670.09;;;13.46;100.00
3590;BME280;1809;48.470;9.226;2023-03-13T06:54:09;29660.31;;;13.51;100.00
3590;BME280;1809;48.470;9.226;2023-03-13T06:56:34;28651.16;;;13.56;100.00
3590;BME280;1809;48.470;9.226;2023-03-13T06:59:01;28650.91;;;13.55;100.00
3590;BME280;1809;48.470;9.226;2023-03-13T07:01:26;25960.00;;;13.67;100.00
3590;BME280;1809;48.470;9.226;2023-03-13T07:03:51;27641.91;;;13.60;100.00
3590;BME280;1809;48.470;9.226;2023-03-13T07:06:17;26292.34;;;13.56;100.00
3590;BME280;1809;48.470;9.226;2023-03-13T07:08:43;23940.25;;;13.70;100.00
3590;BME280;1809;48.470;9.226;2023-03-13T07:11:11;20238.66;;;13.71;100.00
3590;BME280;1809;48.470;9.226;2023-03-13T07:13:37;22591.50;;;13.64;100.00
3590;BME280;1809;48.470;9.226;2023-03-13T07:16:05;23603.19;;;13.69;100.00
3590;BME280;1809;48.470;9.226;2023-03-13T07:18:31;27981.41;;;13.66;100.00
3590;BME280;1809;48.470;9.226;2023-03-13T07:20:58;28658.66;;;13.72;100.00
3590;BME280;1809;48.470;9.226;2023-03-13T07:23:27;30681.56;;;13.70;100.00
3590;BME280;1809;48.470;9.226;2023-03-13T07:25:57;30685.00;;;13.77;100.00
3590;BME280;1809;48.470;9.226;2023-03-13T07:28:24;33047.44;;;13.76;100.00
3590;BME280;1809;48.470;9.226;2023-03-13T07:31:09;29673.75;;;13.79;100.00
3590;BME280;1809;48.470;9.226;2023-03-13T07:33:35;24957.31;;;13.87;100.00
3590;BME280;1809;48.470;9.226;2023-03-13T07:36:01;22936.41;;;13.87;100.00
3590;BME280;1809;48.470;9.226;2023-03-13T07:38:26;28666.41;;;13.89;100.00
3590;BME280;1809;48.470;9.226;2023-03-13T07:40:53;26983.53;;;13.97;100.00
3590;BME280;1809;48.470;9.226;2023-03-13T07:43:20;19909.06;;;13.93;100.00
3590;BME280;1809;48.470;9.226;2023-03-13T07:45:59;28665.97;;;13.88;100.00
3590;BME280;1809;48.470;9.226;2023-03-13T07:48:30;21934.00;;;14.10;100.00
3590;BME280;1809;48.470;9.226;2023-03-13T07:50:56;19912.97;;;14.06;100.00
3590;BME280;1809;48.470;9.226;2023-03-13T07:53:22;22606.84;;;14.08;100.00
3590;BME280;1809;48.470;9.226;2023-03-13T07:56:02;26986.53;;;14.04;100.00
3590;BME280;1809;48.470;9.226;2023-03-13T07:58:30;23956.75;;;14.14;100.00
3590;BME280;1809;48.470;9.226;2023-03-13T08:00:56;18234.84;;;14.20;100.00
3590;BME280;1809;48.470;9.226;2023-03-13T08:03:22;13191.44;;;14.15;100.00
3590;BME280;1809;48.470;9.226;2023-03-13T08:05:57;10505.84;;;14.17;100.00
3590;BME280;1809;48.470;9.226;2023-03-13T08:08:23;10508.72;;;14.35;100.00
3590;BME280;1809;48.470;9.226;2023-03-13T08:10:48;5812.00;;;14.34;100.00
3590;BME280;1809;48.470;9.226;2023-03-13T08:13:13;3466.53;;;14.40;100.00
3590;BME280;1809;48.470;9.226;2023-03-13T08:15:39;12523.50;;;14.34;100.00
3590;BME280;1809;48.470;9.226;2023-03-13T08:18:04;18907.59;;;14.19;100.00
3590;BME280;1809;48.470;9.226;2023-03-13T08:20:29;17898.03;;;14.18;100.00
3590;BME280;1809;48.470;9.226;2023-03-13T08:22:55;26654.19;;;14.16;100.00
3590;BME280;1809;48.470;9.226;2023-03-13T08:25:21;29355.81;;;14.21;100.00
3590;BME280;1809;48.470;9.226;2023-03-13T08:27:46;28679.66;;;14.19;100.00
3590;BME280;1809;48.470;9.226;2023-03-13T08:30:12;29358.84;;;14.28;100.00
3590;BME280;1809;48.470;9.226;2023-03-13T08:32:37;28681.00;;;14.22;100.00
3590;BME280;1809;48.470;9.226;2023-03-13T08:35:03;22280.25;;;14.37;100.00
3590;BME280;1809;48.470;9.226;2023-03-13T08:37:29;18242.25;;;14.46;100.00
3590;BME280;1809;48.470;9.226;2023-03-13T08:39:54;15217.22;;;14.57;100.00
3590;BME280;1809;48.470;9.226;2023-03-13T08:42:21;1792.38;;;14.71;100.00
3590;BME280;1809;48.470;9.226;2023-03-13T08:44:46;-1556.03;;;14.69;100.00
3590;BME280;1809;48.470;9.226;2023-03-13T08:47:12;-11721.06;;;14.93;100.00
3590;BME280;1809;48.470;9.226;2023-03-13T08:49:37;-16589.97;;;15.12;100.00
3590;BME280;1809;48.470;9.226;2023-03-13T08:52:04;-16592.22;;;15.20;100.00
3590;BME280;1809;48.470;9.226;2023-03-13T08:54:30;-16591.94;;;15.19;100.00
3590;BME280;1809;48.470;9.226;2023-03-13T08:56:55;-16588.28;;;15.05;100.00
3590;BME280;1809;48.470;9.226;2023-03-13T08:59:20;-16589.69;;;15.11;100.00
3590;BME280;1809;48.470;9.226;2023-03-13T09:01:46;-16589.13;;;15.08;100.00
3590;BME280;1809;48.470;9.226;2023-03-13T09:04:11;-16590.81;;;15.15;100.00
3590;BME280;1809;48.470;9.226;2023-03-13T09:06:37;-16592.78;;;15.22;100.00
3590;BME280;1809;48.470;9.226;2023-03-13T09:09:04;-16594.44;;;15.28;100.00
3590;BME280;1809;48.470;9.226;2023-03-13T09:11:31;-16595.56;;;15.32;100.00
3590;BME280;1809;48.470;9.226;2023-03-13T09:13:57;-16594.16;;;15.27;100.00
3590;BME280;1809;48.470;9.226;2023-03-13T09:16:30;-16597.13;;;15.37;100.00
3590;BME280;1809;48.470;9.226;2023-03-13T09:18:56;-16602.03;;;15.55;100.00
3590;BME280;1809;48.470;9.226;2023-03-13T09:21:29;-16607.06;;;15.73;100.00
3590;BME280;1809;48.470;9.226;2023-03-13T09:23:55;-16607.91;;;15.76;100.00
3590;BME280;1809;48.470;9.226;2023-03-13T09:26:22;-16612.94;;;15.94;100.00
3590;BME280;1809;48.470;9.226;2023-03-13T09:28:47;-16619.41;;;16.18;100.00
3590;BME280;1809;48.470;9.226;2023-03-13T09:31:22;-16627.53;;;16.47;100.00
3590;BME280;1809;48.470;9.226;2023-03-13T09:33:48;-16634.53;;;16.72;100.00
3590;BME280;1809;48.470;9.226;2023-03-13T09:36:14;-16633.13;;;16.67;100.00
3590;BME280;1809;48.470;9.226;2023-03-13T09:38:41;-16644.31;;;17.07;100.00
3590;BME280;1809;48.470;9.226;2023-03-13T09:44:01;-16656.38;;;17.51;100.00
3590;BME280;1809;48.470;9.226;2023-03-13T09:46:38;-16660.28;;;17.65;100.00
3590;BME280;1809;48.470;9.226;2023-03-13T09:49:17;-16654.13;;;17.43;100.00
3590;BME280;1809;48.470;9.226;2023-03-13T09:51:50;-16651.19;;;17.32;100.00
3590;BME280;1809;48.470;9.226;2023-03-13T09:59:43;-16654.13;;;17.43;100.00
3590;BME280;1809;48.470;9.226;2023-03-13T10:02:24;-16657.78;;;17.56;100.00
3590;BME280;1809;48.470;9.226;2023-03-13T10:04:59;-16661.97;;;17.71;100.00
3590;BME280;1809;48.470;9.226;2023-03-13T10:07:26;-16657.50;;;17.55;100.00
3590;BME280;1809;48.470;9.226;2023-03-13T10:09:52;-16659.72;;;17.63;100.00
3590;BME280;1809;48.470;9.226;2023-03-13T10:12:20;-16661.13;;;17.68;100.00
3590;BME280;1809;48.470;9.226;2023-03-13T10:17:33;-16653.56;;;17.41;100.00
3590;BME280;1809;48.470;9.226;2023-03-13T10:20:22;-16655.81;;;17.49;100.00
3590;BME280;1809;48.470;9.226;2023-03-13T10:22:56;-16659.19;;;17.61;100.00
3590;BME280;1809;48.470;9.226;2023-03-13T10:25:26;-16656.94;;;17.53;100.00
3590;BME280;1809;48.470;9.226;2023-03-13T10:27:51;-16657.50;;;17.55;100.00
3590;BME280;1809;48.470;9.226;2023-03-13T10:32:49;-16668.97;;;17.96;100.00
3590;BME280;1809;48.470;9.226;2023-03-13T10:35:34;-16672.59;;;18.09;100.00
3590;BME280;1809;48.470;9.226;2023-03-13T10:38:03;-16678.63;;;18.31;100.00
3590;BME280;1809;48.470;9.226;2023-03-13T10:40:29;-16684.22;;;18.51;100.00
3590;BME280;1809;48.470;9.226;2023-03-13T10:43:11;-16686.59;;;18.60;100.00
3590;BME280;1809;48.470;9.226;2023-03-13T10:45:37;-16681.00;;;18.40;100.00
3590;BME280;1809;48.470;9.226;2023-03-13T10:48:29;-16681.00;;;18.40;100.00
3590;BME280;1809;48.470;9.226;2023-03-13T10:50:59;-16683.81;;;18.50;100.00
3590;BME280;1809;48.470;9.226;2023-03-13T10:58:44;-16681.84;;;18.43;100.00
3590;BME280;1809;48.470;9.226;2023-03-13T11:03:48;-16682.25;;;18.44;100.00
3590;BME280;1809;48.470;9.226;2023-03-13T11:06:30;-16688.00;;;18.65;100.00
3590;BME280;1809;48.470;9.226;2023-03-13T11:09:10;-16691.63;;;18.78;100.00
3590;BME280;1809;48.470;9.226;2023-03-13T11:11:53;-16700.03;;;19.08;100.00
3590;BME280;1809;48.470;9.226;2023-03-13T11:14:23;-16698.06;;;19.01;100.00
3590;BME280;1809;48.470;9.226;2023-03-13T11:16:50;-16705.06;;;19.26;100.00
3590;BME280;1809;48.470;9.226;2023-03-13T11:19:32;-16709.41;;;19.42;100.00
3590;BME280;1809;48.470;9.226;2023-03-13T11:22:18;-16708.44;;;19.39;100.00
3590;BME280;1809;48.470;9.226;2023-03-13T11:28:19;-16715.69;;;19.65;100.00
3590;BME280;1809;48.470;9.226;2023-03-13T11:31:04;-16713.03;;;19.55;100.00
3590;BME280;1809;48.470;9.226;2023-03-13T11:36:18;-16715.44;;;19.64;100.00
3590;BME280;1809;48.470;9.226;2023-03-13T11:38:52;-16715.16;;;19.63;100.00
3590;BME280;1809;48.470;9.226;2023-03-13T11:49:59;-16727.44;;;20.07;100.00
3590;BME280;1809;48.470;9.226;2023-03-13T11:52:40;-16724.22;;;19.96;100.00
3590;BME280;1809;48.470;9.226;2023-03-13T11:55:22;-16722.41;;;19.89;100.00
3590;BME280;1809;48.470;9.226;2023-03-13T12:00:40;-16720.47;;;19.82;100.00
3590;BME280;1809;48.470;9.226;2023-03-13T12:03:29;-16718.78;;;19.76;100.00
3590;BME280;1809;48.470;9.226;2023-03-13T12:05:58;-16719.91;;;19.80;100.00
3590;BME280;1809;48.470;9.226;2023-03-13T12:08:33;-16719.06;;;19.77;100.00
3590;BME280;1809;48.470;9.226;2023-03-13T12:11:15;-16719.91;;;19.80;100.00
3590;BME280;1809;48.470;9.226;2023-03-13T12:13:59;-16723.38;;;19.93;100.00
3590;BME280;1809;48.470;9.226;2023-03-13T12:16:48;-16727.72;;;20.08;100.00
3590;BME280;1809;48.470;9.226;2023-03-13T12:19:25;-16726.88;;;20.05;100.00
3590;BME280;1809;48.470;9.226;2023-03-13T12:21:53;-16729.41;;;20.14;100.00
3590;BME280;1809;48.470;9.226;2023-03-13T12:24:34;-16733.88;;;20.30;100.00
3590;BME280;1809;48.470;9.226;2023-03-13T12:27:14;-16729.97;;;20.16;100.00
3590;BME280;1809;48.470;9.226;2023-03-13T12:29:54;-16732.75;;;20.26;100.00
3590;BME280;1809;48.470;9.226;2023-03-13T12:35:30;-16735.41;;;20.36;100.00
3590;BME280;1809;48.470;9.226;2023-03-13T12:38:28;-16739.63;;;20.51;100.00
3590;BME280;1809;48.470;9.226;2023-03-13T12:43:42;-16750.66;;;20.91;100.00
3590;BME280;1809;48.470;9.226;2023-03-13T12:46:33;-16754.56;;;21.05;100.00
3590;BME280;1809;48.470;9.226;2023-03-13T12:58:18;-16762.13;;;21.32;99.78
3590;BME280;1809;48.470;9.226;2023-03-13T13:00:50;-16760.84;;;21.28;100.00
3590;BME280;1809;48.470;9.226;2023-03-13T13:03:18;-16760.44;;;21.26;100.00
3590;BME280;1809;48.470;9.226;2023-03-13T13:06:09;-16764.91;;;21.42;95.17
3590;BME280;1809;48.470;9.226;2023-03-13T13:09:05;-16766.03;;;21.47;91.55
3590;BME280;1809;48.470;9.226;2023-03-13T13:16:56;-16780.00;;;21.97;81.99
3590;BME280;1809;48.470;9.226;2023-03-13T13:32:52;-16782.91;;;22.08;85.18
3590;BME280;1809;48.470;9.226;2023-03-13T13:35:28;-16784.88;;;22.15;83.39
3590;BME280;1809;48.470;9.226;2023-03-13T13:41:21;-16793.13;;;22.44;81.47
3590;BME280;1809;48.470;9.226;2023-03-13T13:44:22;-16795.50;;;22.53;81.08
3590;BME280;1809;48.470;9.226;2023-03-13T13:46:48;-16793.66;;;22.46;82.79
3590;BME280;1809;48.470;9.226;2023-03-13T13:49:17;-16788.09;;;22.26;83.99
3590;BME280;1809;48.470;9.226;2023-03-13T13:54:54;-16784.75;;;22.14;87.42
3590;BME280;1809;48.470;9.226;2023-03-13T13:57:22;-16789.50;;;22.31;87.47
3590;BME280;1809;48.470;9.226;2023-03-13T13:59:55;-16798.69;;;22.65;85.86
3590;BME280;1809;48.470;9.226;2023-03-13T14:02:33;-16802.06;;;22.77;87.82
3590;BME280;1809;48.470;9.226;2023-03-13T14:05:07;-16811.25;;;23.10;86.70
3590;BME280;1809;48.470;9.226;2023-03-13T14:10:40;-16806.25;;;22.92;88.99
3590;BME280;1809;48.470;9.226;2023-03-13T14:13:13;-16801.50;;;22.75;89.78
3590;BME280;1809;48.470;9.226;2023-03-13T14:15:44;-16801.22;;;22.74;100.00
3590;BME280;1809;48.470;9.226;2023-03-13T14:18:15;-16796.59;;;22.57;100.00
3590;BME280;1809;48.470;9.226;2023-03-13T14:20:59;-16793.94;;;22.47;100.00
3590;BME280;1809;48.470;9.226;2023-03-13T14:23:44;-16794.78;;;22.50;100.00
3590;BME280;1809;48.470;9.226;2023-03-13T14:28:38;-16795.34;;;22.52;100.00
3590;BME280;1809;48.470;9.226;2023-03-13T14:31:04;-16803.44;;;22.82;100.00
3590;BME280;1809;48.470;9.226;2023-03-13T14:33:29;-16788.22;;;22.27;100.00
3590;BME280;1809;48.470;9.226;2023-03-13T14:35:55;-16787.53;;;22.24;100.00
3590;BME280;1809;48.470;9.226;2023-03-13T14:38:26;-16794.22;;;22.48;100.00
3590;BME280;1809;48.470;9.226;2023-03-13T14:40:54;-16794.09;;;22.48;100.00
3590;BME280;1809;48.470;9.226;2023-03-13T14:43:33;-16794.22;;;22.48;100.00
3590;BME280;1809;48.470;9.226;2023-03-13T14:46:00;-16795.91;;;22.55;100.00
3590;BME280;1809;48.470;9.226;2023-03-13T14:48:36;-16793.94;;;22.47;100.00